sensor_id;sensor_type;location;lat;lon;timestamp;pressure;altitude;pressure_sealevel;temperature;humidity
51259;BME280;37327;54.254;18.504;2022-10-26T00:00:08;100932.80;;;11.42;100.00
51259;BME280;37327;54.254;18.504;2022-10-26T00:03:18;100939.24;;;11.41;100.00
51259;BME280;37327;54.254;18.504;2022-10-26T00:06:26;100935.68;;;11.40;100.00
51259;BME280;37327;54.254;18.504;2022-10-26T00:09:35;100941.45;;;11.37;100.00
51259;BME280;37327;54.254;18.504;2022-10-26T00:12:42;100938.91;;;11.36;100.00
51259;BME280;37327;54.254;18.504;2022-10-26T00:16:21;100939.30;;;11.33;100.00
51259;BME280;37327;54.254;18.504;2022-10-26T00:19:32;100947.57;;;11.31;100.00
51259;BME280;37327;54.254;18.504;2022-10-26T00:22:40;100950.27;;;11.31;100.00
51259;BME280;37327;54.254;18.504;2022-10-26T00:25:54;100949.40;;;11.31;100.00
51259;BME280;37327;54.254;18.504;2022-10-26T00:29:02;100943.01;;;11.32;100.00
51259;BME280;37327;54.254;18.504;2022-10-26T00:32:35;100942.16;;;11.31;100.00
51259;BME280;37327;54.254;18.504;2022-10-26T00:35:46;100945.70;;;11.32;100.00
51259;BME280;37327;54.254;18.504;2022-10-26T00:38:55;100944.32;;;11.36;100.00
51259;BME280;37327;54.254;18.504;2022-10-26T00:42:03;100950.23;;;11.39;100.00
51259;BME280;37327;54.254;18.504;2022-10-26T00:52:17;100954.59;;;11.49;100.00
51259;BME280;37327;54.254;18.504;2022-10-26T00:55:28;100951.69;;;11.50;100.00
51259;BME280;37327;54.254;18.504;2022-10-26T00:58:35;100948.98;;;11.50;100.00
51259;BME280;37327;54.254;18.504;2022-10-26T01:01:45;100949.67;;;11.52;100.00
51259;BME280;37327;54.254;18.504;2022-10-26T01:05:18;100948.63;;;11.53;100.00
51259;BME280;37327;54.254;18.504;2022-10-26T01:08:25;100951.83;;;11.57;100.00
51259;BME280;37327;54.254;18.504;2022-10-26T01:11:33;100943.55;;;11.58;100.00
51259;BME280;37327;54.254;18.504;2022-10-26T01:14:42;100950.63;;;11.59;100.00
51259;BME280;37327;54.254;18.504;2022-10-26T01:18:01;100948.59;;;11.61;100.00
51259;BME280;37327;54.254;18.504;2022-10-26T01:21:48;100950.11;;;11.64;100.00
51259;BME280;37327;54.254;18.504;2022-10-26T01:25:01;100947.41;;;11.64;100.00
51259;BME280;37327;54.254;18.504;2022-10-26T01:31:57;100943.66;;;11.65;100.00
51259;BME280;37327;54.254;18.504;2022-10-26T01:35:16;100948.90;;;11.66;100.00
51259;BME280;37327;54.254;18.504;2022-10-26T01:42:12;100954.48;;;11.65;100.00
51259;BME280;37327;54.254;18.504;2022-10-26T01:45:21;100960.27;;;11.62;100.00
51259;BME280;37327;54.254;18.504;2022-10-26T01:48:33;100957.91;;;11.59;100.00
51259;BME280;37327;54.254;18.504;2022-10-26T01:51:43;100946.77;;;11.54;100.00
51259;BME280;37327;54.254;18.504;2022-10-26T01:55:06;100941.73;;;11.51;100.00
51259;BME280;37327;54.254;18.504;2022-10-26T02:05:30;100961.88;;;11.40;100.00
51259;BME280;37327;54.254;18.504;2022-10-26T02:12:40;100956.02;;;11.28;100.00
51259;BME280;37327;54.254;18.504;2022-10-26T02:23:00;100959.30;;;11.15;100.00
51259;BME280;37327;54.254;18.504;2022-10-26T02:26:19;100962.00;;;11.15;100.00
51259;BME280;37327;54.254;18.504;2022-10-26T02:29:30;100970.44;;;11.12;100.00
51259;BME280;37327;54.254;18.504;2022-10-26T02:33:04;100971.80;;;11.08;100.00
51259;BME280;37327;54.254;18.504;2022-10-26T02:36:17;100971.97;;;11.06;100.00
51259;BME280;37327;54.254;18.504;2022-10-26T02:39:28;100969.27;;;11.06;100.00
51259;BME280;37327;54.254;18.504;2022-10-26T02:42:36;100968.27;;;11.08;100.00
51259;BME280;37327;54.254;18.504;2022-10-26T02:45:52;100962.50;;;11.11;100.00
51259;BME280;37327;54.254;18.504;2022-10-26T02:49:28;100963.34;;;11.11;100.00
51259;BME280;37327;54.254;18.504;2022-10-26T02:55:52;100963.54;;;11.10;100.00
51259;BME280;37327;54.254;18.504;2022-10-26T02:59:05;100974.52;;;11.08;100.00
51259;BME280;37327;54.254;18.504;2022-10-26T03:02:20;100973.01;;;11.05;100.00
51259;BME280;37327;54.254;18.504;2022-10-26T03:05:53;100973.51;;;11.01;100.00
51259;BME280;37327;54.254;18.504;2022-10-26T03:08:59;100978.09;;;11.00;100.00
51259;BME280;37327;54.254;18.504;2022-10-26T03:12:06;100980.11;;;10.98;100.00
51259;BME280;37327;54.254;18.504;2022-10-26T03:15:14;100983.82;;;10.97;100.00
51259;BME280;37327;54.254;18.504;2022-10-26T03:18:20;100989.41;;;10.96;100.00
51259;BME280;37327;54.254;18.504;2022-10-26T03:21:27;100983.14;;;10.95;100.00
51259;BME280;37327;54.254;18.504;2022-10-26T03:25:04;100983.34;;;10.94;100.00
51259;BME280;37327;54.254;18.504;2022-10-26T03:28:11;100988.08;;;10.92;100.00
51259;BME280;37327;54.254;18.504;2022-10-26T03:31:17;100986.54;;;10.89;100.00
51259;BME280;37327;54.254;18.504;2022-10-26T03:34:24;100979.46;;;10.88;100.00
51259;BME280;37327;54.254;18.504;2022-10-26T03:37:31;100992.31;;;10.86;100.00
51259;BME280;37327;54.254;18.504;2022-10-26T03:40:38;100991.63;;;10.84;100.00
51259;BME280;37327;54.254;18.504;2022-10-26T03:44:12;100985.56;;;10.82;100.00
51259;BME280;37327;54.254;18.504;2022-10-26T03:47:19;100985.90;;;10.79;100.00
51259;BME280;37327;54.254;18.504;2022-10-26T03:50:25;100982.52;;;10.77;100.00
51259;BME280;37327;54.254;18.504;2022-10-26T03:53:32;100991.62;;;10.76;100.00
51259;BME280;37327;54.254;18.504;2022-10-26T03:56:39;101000.09;;;10.73;100.00
51259;BME280;37327;54.254;18.504;2022-10-26T03:59:45;100995.69;;;10.72;100.00
51259;BME280;37327;54.254;18.504;2022-10-26T04:02:57;101001.08;;;10.72;100.00
51259;BME280;37327;54.254;18.504;2022-10-26T04:06:29;101004.29;;;10.75;100.00
51259;BME280;37327;54.254;18.504;2022-10-26T04:09:36;101004.80;;;10.79;100.00
51259;BME280;37327;54.254;18.504;2022-10-26T04:12:43;101014.24;;;10.83;100.00
51259;BME280;37327;54.254;18.504;2022-10-26T04:15:49;101001.41;;;10.85;100.00
51259;BME280;37327;54.254;18.504;2022-10-26T04:18:58;101015.59;;;10.87;100.00
51259;BME280;37327;54.254;18.504;2022-10-26T04:22:04;101011.52;;;10.91;100.00
51259;BME280;37327;54.254;18.504;2022-10-26T04:25:39;101013.06;;;10.94;100.00
51259;BME280;37327;54.254;18.504;2022-10-26T04:28:46;101018.27;;;10.95;100.00
51259;BME280;37327;54.254;18.504;2022-10-26T04:31:54;101016.76;;;10.93;100.00
51259;BME280;37327;54.254;18.504;2022-10-26T04:35:00;101019.63;;;10.91;100.00
51259;BME280;37327;54.254;18.504;2022-10-26T04:38:12;101014.23;;;10.91;100.00
51259;BME280;37327;54.254;18.504;2022-10-26T04:41:19;101016.09;;;10.91;100.00
51259;BME280;37327;54.254;18.504;2022-10-26T04:44:51;101017.28;;;10.88;100.00
51259;BME280;37327;54.254;18.504;2022-10-26T04:48:07;101019.12;;;10.87;100.00
51259;BME280;37327;54.254;18.504;2022-10-26T04:51:15;101019.63;;;10.91;100.00
51259;BME280;37327;54.254;18.504;2022-10-26T04:54:22;101021.33;;;10.92;100.00
51259;BME280;37327;54.254;18.504;2022-10-26T04:57:29;101022.32;;;10.91;100.00
51259;BME280;37327;54.254;18.504;2022-10-26T05:01:04;101033.13;;;10.91;100.00
51259;BME280;37327;54.254;18.504;2022-10-26T05:04:11;101037.53;;;10.92;100.00
51259;BME280;37327;54.254;18.504;2022-10-26T05:07:18;101031.10;;;10.93;100.00
51259;BME280;37327;54.254;18.504;2022-10-26T05:10:25;101033.80;;;10.93;100.00
51259;BME280;37327;54.254;18.504;2022-10-26T05:13:32;101044.28;;;10.96;100.00
51259;BME280;37327;54.254;18.504;2022-10-26T05:16:39;101029.06;;;10.95;100.00
51259;BME280;37327;54.254;18.504;2022-10-26T05:20:13;101031.10;;;10.93;100.00
51259;BME280;37327;54.254;18.504;2022-10-26T05:23:21;101036.50;;;10.93;100.00
51259;BME280;37327;54.254;18.504;2022-10-26T05:26:29;101035.51;;;10.94;100.00
51259;BME280;37327;54.254;18.504;2022-10-26T05:29:39;101051.72;;;10.94;100.00
51259;BME280;37327;54.254;18.504;2022-10-26T05:32:53;101046.47;;;10.93;100.00
51259;BME280;37327;54.254;18.504;2022-10-26T05:36:26;101050.01;;;10.93;100.00
51259;BME280;37327;54.254;18.504;2022-10-26T05:39:32;101048.84;;;10.96;100.00
51259;BME280;37327;54.254;18.504;2022-10-26T05:42:40;101044.95;;;10.98;100.00
51259;BME280;37327;54.254;18.504;2022-10-26T05:45:49;101043.24;;;10.97;100.00
51259;BME280;37327;54.254;18.504;2022-10-26T05:48:56;101049.34;;;10.91;100.00
51259;BME280;37327;54.254;18.504;2022-10-26T05:52:03;101051.73;;;10.86;100.00
51259;BME280;37327;54.254;18.504;2022-10-26T05:55:36;101042.95;;;10.84;100.00
51259;BME280;37327;54.254;18.504;2022-10-26T05:58:44;101043.45;;;10.79;100.00
51259;BME280;37327;54.254;18.504;2022-10-26T06:02:00;101046.50;;;10.76;100.00
51259;BME280;37327;54.254;18.504;2022-10-26T06:05:09;101034.84;;;10.76;100.00
51259;BME280;37327;54.254;18.504;2022-10-26T06:08:24;101049.36;;;10.75;100.00
51259;BME280;37327;54.254;18.504;2022-10-26T06:11:57;101052.23;;;10.73;100.00
51259;BME280;37327;54.254;18.504;2022-10-26T06:15:05;101060.49;;;10.72;100.00
51259;BME280;37327;54.254;18.504;2022-10-26T06:25:26;101076.38;;;10.75;100.00
51259;BME280;37327;54.254;18.504;2022-10-26T06:31:53;101070.62;;;10.78;100.00
51259;BME280;37327;54.254;18.504;2022-10-26T06:35:50;101064.88;;;10.81;100.00
51259;BME280;37327;54.254;18.504;2022-10-26T06:38:42;101073.67;;;10.83;100.00
51259;BME280;37327;54.254;18.504;2022-10-26T06:41:50;101074.01;;;10.88;100.00
51259;BME280;37327;54.254;18.504;2022-10-26T06:44:57;101060.15;;;10.91;100.00
51259;BME280;37327;54.254;18.504;2022-10-26T06:48:09;101074.83;;;10.97;100.00
51259;BME280;37327;54.254;18.504;2022-10-26T06:51:23;101080.58;;;11.02;100.00
51259;BME280;37327;54.254;18.504;2022-10-26T06:54:56;101091.53;;;11.09;100.00
51259;BME280;37327;54.254;18.504;2022-10-26T06:58:06;101097.95;;;11.16;100.00
51259;BME280;37327;54.254;18.504;2022-10-26T07:01:14;101098.96;;;11.23;100.00
51259;BME280;37327;54.254;18.504;2022-10-26T07:04:22;101087.46;;;11.29;100.00
51259;BME280;37327;54.254;18.504;2022-10-26T07:07:30;101111.09;;;11.35;100.00
51259;BME280;37327;54.254;18.504;2022-10-26T07:10:37;101100.59;;;11.40;100.00
51259;BME280;37327;54.254;18.504;2022-10-26T07:14:13;101109.04;;;11.45;100.00
51259;BME280;37327;54.254;18.504;2022-10-26T07:17:20;101107.67;;;11.50;100.00
51259;BME280;37327;54.254;18.504;2022-10-26T07:20:27;101113.74;;;11.52;100.00
51259;BME280;37327;54.254;18.504;2022-10-26T07:23:34;101117.78;;;11.56;100.00
51259;BME280;37327;54.254;18.504;2022-10-26T07:26:41;101117.28;;;11.60;100.00
51259;BME280;37327;54.254;18.504;2022-10-26T07:29:47;101126.74;;;11.64;100.00
51259;BME280;37327;54.254;18.504;2022-10-26T07:33:00;101126.87;;;11.71;100.00
51259;BME280;37327;54.254;18.504;2022-10-26T07:36:32;101124.67;;;11.75;100.00
51259;BME280;37327;54.254;18.504;2022-10-26T07:39:43;101117.89;;;11.79;100.00
51259;BME280;37327;54.254;18.504;2022-10-26T07:42:50;101127.16;;;11.84;100.00
51259;BME280;37327;54.254;18.504;2022-10-26T07:45:57;101128.20;;;11.92;100.00
51259;BME280;37327;54.254;18.504;2022-10-26T07:49:04;101139.98;;;11.99;100.00
51259;BME280;37327;54.254;18.504;2022-10-26T07:52:11;101151.14;;;12.04;100.00
51259;BME280;37327;54.254;18.504;2022-10-26T07:55:52;101145.69;;;12.12;100.00
51259;BME280;37327;54.254;18.504;2022-10-26T07:59:02;101154.96;;;12.18;100.00
51259;BME280;37327;54.254;18.504;2022-10-26T08:02:09;101152.41;;;12.24;100.00
51259;BME280;37327;54.254;18.504;2022-10-26T08:05:15;101160.66;;;12.31;100.00
51259;BME280;37327;54.254;18.504;2022-10-26T08:08:22;101158.73;;;12.40;100.00
51259;BME280;37327;54.254;18.504;2022-10-26T08:11:56;101163.46;;;12.46;100.00
51259;BME280;37327;54.254;18.504;2022-10-26T08:15:04;101166.95;;;12.55;100.00
51259;BME280;37327;54.254;18.504;2022-10-26T08:18:11;101159.63;;;12.63;100.00
51259;BME280;37327;54.254;18.504;2022-10-26T08:21:18;101158.36;;;12.74;100.00
51259;BME280;37327;54.254;18.504;2022-10-26T08:24:24;101154.40;;;12.85;100.00
51259;BME280;37327;54.254;18.504;2022-10-26T08:27:31;101154.61;;;12.98;100.00
51259;BME280;37327;54.254;18.504;2022-10-26T08:31:06;101166.73;;;13.11;100.00
51259;BME280;37327;54.254;18.504;2022-10-26T08:34:13;101167.79;;;13.24;100.00
51259;BME280;37327;54.254;18.504;2022-10-26T08:37:19;101173.34;;;13.31;100.00
51259;BME280;37327;54.254;18.504;2022-10-26T08:40:31;101173.91;;;13.41;100.00
51259;BME280;37327;54.254;18.504;2022-10-26T08:43:48;101177.50;;;13.57;100.00
51259;BME280;37327;54.254;18.504;2022-10-26T08:47:27;101179.40;;;13.71;98.61
51259;BME280;37327;54.254;18.504;2022-10-26T08:54:09;101180.70;;;13.90;95.65
51259;BME280;37327;54.254;18.504;2022-10-26T08:57:47;101184.17;;;13.99;94.52
51259;BME280;37327;54.254;18.504;2022-10-26T09:00:54;101183.42;;;14.05;94.16
51259;BME280;37327;54.254;18.504;2022-10-26T09:04:02;101182.95;;;14.16;93.76
51259;BME280;37327;54.254;18.504;2022-10-26T09:10:45;101187.70;;;14.29;91.69
51259;BME280;37327;54.254;18.504;2022-10-26T09:14:30;101186.09;;;14.35;91.56
51259;BME280;37327;54.254;18.504;2022-10-26T09:25:40;101194.24;;;14.35;89.88
51259;BME280;37327;54.254;18.504;2022-10-26T09:28:49;101208.22;;;14.32;89.41
51259;BME280;37327;54.254;18.504;2022-10-26T09:31:59;101208.59;;;14.29;88.95
51259;BME280;37327;54.254;18.504;2022-10-26T09:38:58;101204.09;;;14.36;88.16
51259;BME280;37327;54.254;18.504;2022-10-26T09:45:59;101211.59;;;14.34;86.51
51259;BME280;37327;54.254;18.504;2022-10-26T09:49:09;101211.20;;;14.37;86.62
51259;BME280;37327;54.254;18.504;2022-10-26T09:52:18;101205.46;;;14.47;86.91
51259;BME280;37327;54.254;18.504;2022-10-26T09:55:25;101218.78;;;14.56;86.44
51259;BME280;37327;54.254;18.504;2022-10-26T09:58:43;101221.19;;;14.66;85.52
51259;BME280;37327;54.254;18.504;2022-10-26T10:05:35;101218.45;;;14.81;84.58
51259;BME280;37327;54.254;18.504;2022-10-26T10:12:02;101229.47;;;14.94;85.23
51259;BME280;37327;54.254;18.504;2022-10-26T10:15:34;101229.92;;;14.98;85.09
51259;BME280;37327;54.254;18.504;2022-10-26T10:22:08;101226.30;;;15.12;84.94
51259;BME280;37327;54.254;18.504;2022-10-26T10:29:01;101235.13;;;15.43;82.39
51259;BME280;37327;54.254;18.504;2022-10-26T10:32:16;101234.61;;;15.54;80.91
51259;BME280;37327;54.254;18.504;2022-10-26T10:35:29;101240.55;;;15.64;80.88
51259;BME280;37327;54.254;18.504;2022-10-26T10:38:41;101240.42;;;15.72;80.71
51259;BME280;37327;54.254;18.504;2022-10-26T10:42:20;101236.10;;;15.78;80.67
51259;BME280;37327;54.254;18.504;2022-10-26T10:45:30;101243.70;;;15.89;79.82
51259;BME280;37327;54.254;18.504;2022-10-26T10:48:37;101230.78;;;15.98;79.03
51259;BME280;37327;54.254;18.504;2022-10-26T10:51:50;101235.42;;;16.04;78.72
51259;BME280;37327;54.254;18.504;2022-10-26T11:09:12;101251.31;;;16.35;75.26
51259;BME280;37327;54.254;18.504;2022-10-26T11:12:30;101253.21;;;16.35;75.04
51259;BME280;37327;54.254;18.504;2022-10-26T11:15:41;101261.59;;;16.40;76.87
51259;BME280;37327;54.254;18.504;2022-10-26T11:22:52;101255.33;;;16.46;74.96
51259;BME280;37327;54.254;18.504;2022-10-26T11:26:04;101268.05;;;16.32;76.05
51259;BME280;37327;54.254;18.504;2022-10-26T11:29:19;101275.56;;;16.24;75.49
51259;BME280;37327;54.254;18.504;2022-10-26T11:36:18;101281.84;;;16.24;75.00
51259;BME280;37327;54.254;18.504;2022-10-26T11:46:36;101288.00;;;16.05;76.06
51259;BME280;37327;54.254;18.504;2022-10-26T11:49:49;101291.34;;;16.00;75.26
51259;BME280;37327;54.254;18.504;2022-10-26T11:56:48;101292.35;;;15.99;74.53
51259;BME280;37327;54.254;18.504;2022-10-26T12:00:07;101296.36;;;16.03;74.60
51259;BME280;37327;54.254;18.504;2022-10-26T12:03:24;101299.88;;;15.97;74.11
51259;BME280;37327;54.254;18.504;2022-10-26T12:06:33;101293.16;;;15.93;75.24
51259;BME280;37327;54.254;18.504;2022-10-26T12:10:12;101297.65;;;15.79;75.11
51259;BME280;37327;54.254;18.504;2022-10-26T12:13:27;101299.85;;;15.69;75.17
51259;BME280;37327;54.254;18.504;2022-10-26T12:27:02;101303.80;;;15.45;76.51
51259;BME280;37327;54.254;18.504;2022-10-26T12:30:23;101311.13;;;15.44;76.91
51259;BME280;37327;54.254;18.504;2022-10-26T12:33:55;101305.23;;;15.40;76.98
51259;BME280;37327;54.254;18.504;2022-10-26T12:37:21;101302.91;;;15.37;77.37
51259;BME280;37327;54.254;18.504;2022-10-26T12:40:36;101308.08;;;15.32;77.28
51259;BME280;37327;54.254;18.504;2022-10-26T12:43:46;101303.05;;;15.29;77.42
51259;BME280;37327;54.254;18.504;2022-10-26T12:50:40;101306.60;;;15.30;77.51
51259;BME280;37327;54.254;18.504;2022-10-26T13:07:35;101306.79;;;15.28;76.22
51259;BME280;37327;54.254;18.504;2022-10-26T13:11:20;101308.02;;;15.26;75.85
51259;BME280;37327;54.254;18.504;2022-10-26T13:14:35;101308.02;;;15.26;76.26
51259;BME280;37327;54.254;18.504;2022-10-26T13:17:53;101313.66;;;15.24;76.30
51259;BME280;37327;54.254;18.504;2022-10-26T13:21:27;101318.27;;;15.24;76.38
51259;BME280;37327;54.254;18.504;2022-10-26T13:24:33;101320.12;;;15.23;76.74
51259;BME280;37327;54.254;18.504;2022-10-26T13:27:43;101322.65;;;15.25;76.92
51259;BME280;37327;54.254;18.504;2022-10-26T13:30:50;101325.12;;;15.19;76.66
51259;BME280;37327;54.254;18.504;2022-10-26T13:34:25;101324.38;;;15.11;76.75
51259;BME280;37327;54.254;18.504;2022-10-26T13:37:43;101327.50;;;15.08;76.88
51259;BME280;37327;54.254;18.504;2022-10-26T13:41:01;101321.78;;;15.03;76.61
51259;BME280;37327;54.254;18.504;2022-10-26T13:44:24;101322.62;;;15.03;77.74
51259;BME280;37327;54.254;18.504;2022-10-26T13:48:05;101333.30;;;15.05;77.52
51259;BME280;37327;54.254;18.504;2022-10-26T13:51:20;101333.13;;;15.06;77.54
51259;BME280;37327;54.254;18.504;2022-10-26T13:54:35;101335.84;;;15.06;77.74
51259;BME280;37327;54.254;18.504;2022-10-26T14:01:28;101342.88;;;15.00;77.86
51259;BME280;37327;54.254;18.504;2022-10-26T14:04:37;101335.31;;;14.96;77.81
51259;BME280;37327;54.254;18.504;2022-10-26T14:07:53;101336.52;;;14.93;78.42
51259;BME280;37327;54.254;18.504;2022-10-26T14:11:02;101342.34;;;14.90;78.23
51259;BME280;37327;54.254;18.504;2022-10-26T14:14:17;101334.56;;;14.87;78.83
51259;BME280;37327;54.254;18.504;2022-10-26T14:17:51;101343.08;;;14.84;79.43
51259;BME280;37327;54.254;18.504;2022-10-26T14:21:03;101351.92;;;14.86;79.42
51259;BME280;37327;54.254;18.504;2022-10-26T14:27:32;101353.95;;;14.84;79.79
51259;BME280;37327;54.254;18.504;2022-10-26T14:31:12;101345.55;;;14.79;79.63
51259;BME280;37327;54.254;18.504;2022-10-26T14:34:20;101341.34;;;14.76;79.97
51259;BME280;37327;54.254;18.504;2022-10-26T14:40:46;101351.27;;;14.69;79.63
51259;BME280;37327;54.254;18.504;2022-10-26T14:44:24;101348.65;;;14.61;79.18
51259;BME280;37327;54.254;18.504;2022-10-26T14:47:34;101354.81;;;14.55;79.12
51259;BME280;37327;54.254;18.504;2022-10-26T14:50:41;101358.91;;;14.51;79.68
51259;BME280;37327;54.254;18.504;2022-10-26T14:53:53;101353.03;;;14.47;79.83
51259;BME280;37327;54.254;18.504;2022-10-26T14:57:02;101362.02;;;14.48;79.83
51259;BME280;37327;54.254;18.504;2022-10-26T15:00:39;101355.09;;;14.45;79.39
51259;BME280;37327;54.254;18.504;2022-10-26T15:03:54;101362.77;;;14.41;80.18
51259;BME280;37327;54.254;18.504;2022-10-26T15:07:14;101365.36;;;14.35;79.83
51259;BME280;37327;54.254;18.504;2022-10-26T15:14:10;101370.88;;;14.27;80.32
51259;BME280;37327;54.254;18.504;2022-10-26T15:17:23;101363.10;;;14.23;80.33
51259;BME280;37327;54.254;18.504;2022-10-26T15:20:33;101376.02;;;14.21;81.19
51259;BME280;37327;54.254;18.504;2022-10-26T15:23:40;101373.03;;;14.16;81.84
51259;BME280;37327;54.254;18.504;2022-10-26T15:26:47;101376.49;;;14.10;82.33
51259;BME280;37327;54.254;18.504;2022-10-26T15:30:26;101374.20;;;13.99;81.93
51259;BME280;37327;54.254;18.504;2022-10-26T15:33:31;101373.62;;;13.89;81.72
51259;BME280;37327;54.254;18.504;2022-10-26T15:36:40;101380.98;;;13.80;82.04
51259;BME280;37327;54.254;18.504;2022-10-26T15:39:47;101382.60;;;13.66;82.25
51259;BME280;37327;54.254;18.504;2022-10-26T15:42:55;101378.98;;;13.51;82.76
51259;BME280;37327;54.254;18.504;2022-10-26T15:46:33;101378.05;;;13.35;83.28
51259;BME280;37327;54.254;18.504;2022-10-26T15:49:42;101380.84;;;13.19;84.17
51259;BME280;37327;54.254;18.504;2022-10-26T15:52:55;101384.30;;;13.04;84.54
51259;BME280;37327;54.254;18.504;2022-10-26T15:56:14;101398.55;;;12.98;85.08
51259;BME280;37327;54.254;18.504;2022-10-26T15:59:47;101394.21;;;12.81;85.74
51259;BME280;37327;54.254;18.504;2022-10-26T16:02:53;101400.33;;;12.75;86.19
51259;BME280;37327;54.254;18.504;2022-10-26T16:06:01;101400.89;;;12.62;86.90
51259;BME280;37327;54.254;18.504;2022-10-26T16:09:18;101401.75;;;12.54;87.34
51259;BME280;37327;54.254;18.504;2022-10-26T16:12:29;101404.29;;;12.48;87.85
51259;BME280;37327;54.254;18.504;2022-10-26T16:16:01;101409.40;;;12.42;88.61
51259;BME280;37327;54.254;18.504;2022-10-26T16:19:09;101409.55;;;12.41;89.27
51259;BME280;37327;54.254;18.504;2022-10-26T16:22:16;101416.18;;;12.38;89.75
51259;BME280;37327;54.254;18.504;2022-10-26T16:25:25;101420.72;;;12.38;90.14
51259;BME280;37327;54.254;18.504;2022-10-26T16:28:32;101416.18;;;12.38;90.54
51259;BME280;37327;54.254;18.504;2022-10-26T16:31:40;101417.84;;;12.39;90.76
51259;BME280;37327;54.254;18.504;2022-10-26T16:35:13;101422.94;;;12.42;91.49
51259;BME280;37327;54.254;18.504;2022-10-26T16:38:19;101418.87;;;12.47;91.63
51259;BME280;37327;54.254;18.504;2022-10-26T16:41:26;101418.70;;;12.48;91.83
51259;BME280;37327;54.254;18.504;2022-10-26T16:44:33;101423.91;;;12.50;92.07
51259;BME280;37327;54.254;18.504;2022-10-26T16:47:41;101427.66;;;12.49;92.02
51259;BME280;37327;54.254;18.504;2022-10-26T16:50:48;101427.99;;;12.45;92.17
51259;BME280;37327;54.254;18.504;2022-10-26T16:54:27;101427.84;;;12.39;92.49
51259;BME280;37327;54.254;18.504;2022-10-26T16:57:37;101435.97;;;12.39;92.90
51259;BME280;37327;54.254;18.504;2022-10-26T17:00:44;101442.75;;;12.35;92.94
51259;BME280;37327;54.254;18.504;2022-10-26T17:03:53;101442.56;;;12.28;93.04
51259;BME280;37327;54.254;18.504;2022-10-26T17:07:00;101457.30;;;12.17;93.05
51259;BME280;37327;54.254;18.504;2022-10-26T17:10:34;101451.87;;;12.01;93.29
51259;BME280;37327;54.254;18.504;2022-10-26T17:13:46;101459.27;;;11.82;94.13
51259;BME280;37327;54.254;18.504;2022-10-26T17:16:53;101454.85;;;11.73;94.50
51259;BME280;37327;54.254;18.504;2022-10-26T17:19:59;101462.63;;;11.68;94.20
51259;BME280;37327;54.254;18.504;2022-10-26T17:23:06;101467.32;;;11.58;94.36
51259;BME280;37327;54.254;18.504;2022-10-26T17:26:14;101471.88;;;11.49;94.20
51259;BME280;37327;54.254;18.504;2022-10-26T17:29:46;101470.98;;;11.40;94.25
51259;BME280;37327;54.254;18.504;2022-10-26T17:32:53;101471.99;;;11.31;94.43
51259;BME280;37327;54.254;18.504;2022-10-26T17:36:02;101473.26;;;11.19;95.00
51259;BME280;37327;54.254;18.504;2022-10-26T17:39:09;101475.10;;;11.10;95.20
51259;BME280;37327;54.254;18.504;2022-10-26T17:42:16;101478.45;;;11.04;95.17
51259;BME280;37327;54.254;18.504;2022-10-26T17:45:23;101484.96;;;10.93;95.61
51259;BME280;37327;54.254;18.504;2022-10-26T17:48:57;101487.48;;;10.86;96.15
51259;BME280;37327;54.254;18.504;2022-10-26T17:52:04;101489.79;;;10.81;96.43
51259;BME280;37327;54.254;18.504;2022-10-26T17:55:11;101490.77;;;10.72;96.81
51259;BME280;37327;54.254;18.504;2022-10-26T17:58:17;101493.92;;;10.67;96.68
51259;BME280;37327;54.254;18.504;2022-10-26T18:01:30;101496.96;;;10.64;97.27
51259;BME280;37327;54.254;18.504;2022-10-26T18:05:10;101500.80;;;10.62;97.67
51259;BME280;37327;54.254;18.504;2022-10-26T18:08:20;101503.84;;;10.59;98.14
51259;BME280;37327;54.254;18.504;2022-10-26T18:11:27;101506.98;;;10.54;98.10
51259;BME280;37327;54.254;18.504;2022-10-26T18:14:34;101502.76;;;10.52;98.44
51259;BME280;37327;54.254;18.504;2022-10-26T18:17:41;101499.22;;;10.51;99.29
51259;BME280;37327;54.254;18.504;2022-10-26T18:20:50;101505.46;;;10.52;99.97
51259;BME280;37327;54.254;18.504;2022-10-26T18:24:22;101514.10;;;10.55;100.00
51259;BME280;37327;54.254;18.504;2022-10-26T18:27:30;101516.66;;;10.57;100.00
51259;BME280;37327;54.254;18.504;2022-10-26T18:30:37;101518.18;;;10.59;100.00
51259;BME280;37327;54.254;18.504;2022-10-26T18:33:45;101519.02;;;10.60;100.00
51259;BME280;37327;54.254;18.504;2022-10-26T18:36:52;101528.29;;;10.57;100.00
51259;BME280;37327;54.254;18.504;2022-10-26T18:39:59;101530.30;;;10.55;100.00
51259;BME280;37327;54.254;18.504;2022-10-26T18:43:32;101531.47;;;10.53;100.00
51259;BME280;37327;54.254;18.504;2022-10-26T18:46:39;101529.76;;;10.52;100.00
51259;BME280;37327;54.254;18.504;2022-10-26T18:49:50;101536.00;;;10.52;100.00
51259;BME280;37327;54.254;18.504;2022-10-26T18:52:54;101539.38;;;10.54;100.00
51259;BME280;37327;54.254;18.504;2022-10-26T18:56:06;101535.01;;;10.53;100.00
51259;BME280;37327;54.254;18.504;2022-10-26T18:59:14;101549.20;;;10.55;100.00
51259;BME280;37327;54.254;18.504;2022-10-26T19:02:48;101555.29;;;10.57;100.00
51259;BME280;37327;54.254;18.504;2022-10-26T19:05:55;101554.96;;;10.60;100.00
51259;BME280;37327;54.254;18.504;2022-10-26T19:09:04;101555.84;;;10.61;100.00
51259;BME280;37327;54.254;18.504;2022-10-26T19:12:11;101553.82;;;10.63;100.00